createdAt,value
2023-04-02T00:00:03.264Z,87564.00
2023-04-02T00:01:03.254Z,87564.00
2023-04-02T00:02:03.289Z,87564.00
2023-04-02T00:03:03.300Z,87566.00
2023-04-02T00:04:03.264Z,87566.00
2023-04-02T00:05:03.195Z,87566.00
2023-04-02T00:06:03.185Z,87568.00
2023-04-02T00:07:03.164Z,87568.00
2023-04-02T00:08:03.179Z,87566.00
2023-04-02T00:09:03.149Z,87566.00
2023-04-02T00:10:03.130Z,87568.00
2023-04-02T00:11:03.138Z,87568.00
2023-04-02T00:12:03.107Z,87568.00
2023-04-02T00:13:03.083Z,87566.00
2023-04-02T00:14:03.071Z,87566.00
2023-04-02T00:15:03.059Z,87568.00
2023-04-02T00:16:03.069Z,87566.00
2023-04-02T00:17:03.041Z,87568.00
2023-04-02T00:18:03.056Z,87566.00
2023-04-02T00:19:03.032Z,87568.00
2023-04-02T00:20:03.002Z,87568.00
2023-04-02T00:21:02.989Z,87568.00
2023-04-02T00:22:02.976Z,87566.00
2023-04-02T00:23:02.957Z,87568.00
2023-04-02T00:24:02.978Z,87568.00
2023-04-02T00:25:02.903Z,87568.00
2023-04-02T00:26:02.888Z,87570.00
2023-04-02T00:27:02.914Z,87566.00
2023-04-02T00:28:02.878Z,87570.00
2023-04-02T00:29:02.905Z,87568.00
2023-04-02T00:30:02.893Z,87568.00
2023-04-02T00:31:02.909Z,87570.00
2023-04-02T00:32:02.948Z,87570.00
2023-04-02T00:33:02.906Z,87570.00
2023-04-02T00:34:02.900Z,87568.00
2023-04-02T00:35:02.905Z,87570.00
2023-04-02T00:36:02.946Z,87570.00
2023-04-02T00:37:02.912Z,87570.00
2023-04-02T00:38:02.914Z,87568.00
2023-04-02T00:39:02.927Z,87570.00
2023-04-02T00:40:02.944Z,87568.00
2023-04-02T00:41:02.949Z,87568.00
2023-04-02T00:42:02.949Z,87568.00
2023-04-02T00:43:02.952Z,87570.00
2023-04-02T00:44:02.953Z,87568.00
2023-04-02T00:45:02.954Z,87568.00
2023-04-02T00:46:02.971Z,87568.00
2023-04-02T00:47:02.940Z,87568.00
2023-04-02T00:48:03.033Z,87568.00
2023-04-02T00:49:02.968Z,87570.00
2023-04-02T00:50:03.036Z,87570.00
2023-04-02T00:51:02.965Z,87568.00
2023-04-02T00:52:02.953Z,87568.00
2023-04-02T00:53:02.966Z,87566.00
2023-04-02T00:54:02.963Z,87568.00
2023-04-02T00:55:02.964Z,87568.00
2023-04-02T00:56:02.973Z,87568.00
2023-04-02T00:57:03.030Z,87566.00
2023-04-02T00:58:02.994Z,87566.00
2023-04-02T00:59:03.005Z,87566.00
2023-04-02T01:00:03.012Z,87566.00
2023-04-02T01:01:03.048Z,87564.00
2023-04-02T01:02:03.016Z,87562.00
2023-04-02T01:03:03.085Z,87562.00
2023-04-02T01:04:03.073Z,87562.00
2023-04-02T01:05:03.052Z,87564.00
2023-04-02T01:06:03.052Z,87566.00
2023-04-02T01:07:03.059Z,87562.00
2023-04-02T01:08:03.077Z,87564.00
2023-04-02T01:09:03.095Z,87564.00
2023-04-02T01:10:03.097Z,87564.00
2023-04-02T01:11:03.103Z,87564.00
2023-04-02T01:12:03.104Z,87566.00
2023-04-02T01:13:03.090Z,87562.00
2023-04-02T01:14:03.072Z,87566.00
2023-04-02T01:15:03.096Z,87562.00
2023-04-02T01:16:03.199Z,87560.00
2023-04-02T01:17:03.073Z,87562.00
2023-04-02T01:18:03.132Z,87560.00
2023-04-02T01:19:03.056Z,87560.00
2023-04-02T01:20:03.048Z,87558.00
2023-04-02T01:21:03.033Z,87556.00
2023-04-02T01:22:03.049Z,87560.00
2023-04-02T01:23:03.018Z,87560.00
2023-04-02T01:24:03.018Z,87562.00
2023-04-02T01:25:03.002Z,87562.00
2023-04-02T01:26:02.990Z,87562.00
2023-04-02T01:27:02.976Z,87562.00
2023-04-02T01:28:02.997Z,87566.00
2023-04-02T01:29:02.989Z,87566.00
2023-04-02T01:30:02.993Z,87568.00
2023-04-02T01:31:03.030Z,87570.00
2023-04-02T01:32:03.011Z,87570.00
2023-04-02T01:33:03.092Z,87562.00
2023-04-02T01:34:03.061Z,87566.00
2023-04-02T01:35:03.085Z,87570.00
2023-04-02T01:36:03.118Z,87570.00
2023-04-02T01:37:03.073Z,87570.00
2023-04-02T01:38:03.084Z,87566.00
2023-04-02T01:39:03.108Z,87568.00
2023-04-02T01:40:03.122Z,87568.00
2023-04-02T01:41:03.128Z,87564.00
2023-04-02T01:42:03.126Z,87572.00
2023-04-02T01:43:03.130Z,87572.00
2023-04-02T01:44:03.151Z,87574.00
2023-04-02T01:45:03.166Z,87568.00
2023-04-02T01:46:03.168Z,87574.00
2023-04-02T01:47:03.194Z,87570.00
2023-04-02T01:48:03.244Z,87576.00
2023-04-02T01:49:03.202Z,87578.00
2023-04-02T01:50:03.223Z,87576.00
2023-04-02T01:51:03.236Z,87580.00
2023-04-02T01:52:03.233Z,87580.00
2023-04-02T01:53:03.265Z,87581.00
2023-04-02T01:54:03.261Z,87576.00
2023-04-02T01:55:03.351Z,87580.00
2023-04-02T01:56:03.274Z,87578.00
2023-04-02T01:57:03.296Z,87578.00
2023-04-02T01:58:03.272Z,87576.00
2023-04-02T01:59:03.289Z,87578.00
2023-04-02T02:00:03.275Z,87578.00
2023-04-02T02:01:03.298Z,87578.00
2023-04-02T02:02:03.293Z,87580.00
2023-04-02T02:03:03.340Z,87578.00
2023-04-02T02:04:03.266Z,87578.00
2023-04-02T02:05:03.247Z,87578.00
2023-04-02T02:06:03.240Z,87580.00
2023-04-02T02:07:03.226Z,87580.00
2023-04-02T02:08:03.226Z,87580.00
2023-04-02T02:09:03.191Z,87578.00
2023-04-02T02:10:03.200Z,87580.00
2023-04-02T02:11:03.171Z,87578.00
2023-04-02T02:12:03.166Z,87580.00
2023-04-02T02:13:03.157Z,87580.00
2023-04-02T02:14:03.144Z,87581.00
2023-04-02T02:15:03.138Z,87580.00
2023-04-02T02:16:03.185Z,87583.00
2023-04-02T02:17:03.105Z,87583.00
2023-04-02T02:18:03.151Z,87583.00
2023-04-02T02:19:03.095Z,87583.00
2023-04-02T02:20:03.092Z,87583.00
2023-04-02T02:21:03.086Z,87583.00
2023-04-02T02:22:03.085Z,87581.00
2023-04-02T02:23:03.072Z,87583.00
2023-04-02T02:24:03.082Z,87585.00
2023-04-02T02:25:03.059Z,87587.00
2023-04-02T02:26:03.053Z,87585.00
2023-04-02T02:27:03.025Z,87585.00
2023-04-02T02:28:03.025Z,87589.00
2023-04-02T02:29:03.017Z,87589.00
2023-04-02T02:30:03.021Z,87593.00
2023-04-02T02:31:02.991Z,87593.00
2023-04-02T02:32:03.061Z,87591.00
2023-04-02T02:33:03.022Z,87595.00
2023-04-02T02:34:02.956Z,87595.00
2023-04-02T02:35:02.957Z,87597.00
2023-04-02T02:36:03.051Z,87593.00
2023-04-02T02:37:02.922Z,87593.00
2023-04-02T02:38:02.909Z,87593.00
2023-04-02T02:39:02.906Z,87591.00
2023-04-02T02:40:02.910Z,87595.00
2023-04-02T02:41:02.875Z,87591.00
2023-04-02T02:42:02.882Z,87593.00
2023-04-02T02:43:02.848Z,87591.00
2023-04-02T02:44:02.848Z,87589.00
2023-04-02T02:45:02.853Z,87591.00
2023-04-02T02:46:02.857Z,87591.00
2023-04-02T02:47:02.818Z,87589.00
2023-04-02T02:48:02.811Z,87591.00
2023-04-02T02:49:02.786Z,87591.00
2023-04-02T02:50:02.789Z,87591.00
2023-04-02T02:51:02.756Z,87595.00
2023-04-02T02:52:02.793Z,87595.00
2023-04-02T02:53:02.783Z,87597.00
2023-04-02T02:54:02.785Z,87597.00
2023-04-02T02:55:02.818Z,87597.00
2023-04-02T02:56:02.807Z,87599.00
2023-04-02T02:57:02.877Z,87601.00
2023-04-02T02:58:02.834Z,87603.00
2023-04-02T02:59:02.856Z,87603.00
2023-04-02T03:00:02.871Z,87601.00
2023-04-02T03:01:02.905Z,87605.00
2023-04-02T03:02:02.913Z,87605.00
2023-04-02T03:03:03.034Z,87607.00
2023-04-02T03:04:03.080Z,87609.00
2023-04-02T03:05:02.922Z,87609.00
2023-04-02T03:06:02.935Z,87607.00
2023-04-02T03:07:02.898Z,87609.00
2023-04-02T03:08:02.881Z,87611.00
2023-04-02T03:09:02.882Z,87611.00
2023-04-02T03:10:02.870Z,87613.00
2023-04-02T03:11:02.873Z,87615.00
2023-04-02T03:12:02.854Z,87615.00
2023-04-02T03:13:02.847Z,87617.00
2023-04-02T03:14:02.845Z,87617.00
2023-04-02T03:15:02.849Z,87619.00
2023-04-02T03:16:02.897Z,87621.00
2023-04-02T03:17:02.829Z,87621.00
2023-04-02T03:18:02.847Z,87623.00
2023-04-02T03:19:02.833Z,87623.00
2023-04-02T03:20:02.821Z,87623.00
2023-04-02T03:21:02.854Z,87627.00
2023-04-02T03:22:02.830Z,87629.00
2023-04-02T03:23:02.792Z,87631.00
2023-04-02T03:24:02.778Z,87631.00
2023-04-02T03:25:02.808Z,87631.00
2023-04-02T03:26:02.764Z,87631.00
2023-04-02T03:27:02.812Z,87633.00
2023-04-02T03:28:02.789Z,87629.00
2023-04-02T03:29:02.735Z,87633.00
2023-04-02T03:30:02.727Z,87633.00
2023-04-02T03:31:02.775Z,87633.00
2023-04-02T03:32:02.724Z,87633.00
2023-04-02T03:33:02.719Z,87633.00
2023-04-02T03:34:02.692Z,87635.00
2023-04-02T03:35:02.672Z,87636.00
2023-04-02T03:36:02.698Z,87635.00
2023-04-02T03:37:02.658Z,87636.00
2023-04-02T03:38:02.642Z,87635.00
2023-04-02T03:39:02.629Z,87636.00
2023-04-02T03:40:02.641Z,87638.00
2023-04-02T03:41:02.645Z,87638.00
2023-04-02T03:42:02.636Z,87636.00
2023-04-02T03:43:02.632Z,87640.00
2023-04-02T03:44:02.655Z,87638.00
2023-04-02T03:45:02.651Z,87640.00
2023-04-02T03:46:02.723Z,87642.00
2023-04-02T03:47:02.685Z,87636.00
2023-04-02T03:48:02.709Z,87638.00
2023-04-02T03:49:02.725Z,87642.00
2023-04-02T03:50:02.743Z,87640.00
2023-04-02T03:51:02.759Z,87640.00
2023-04-02T03:52:02.798Z,87640.00
2023-04-02T03:53:02.796Z,87638.00
2023-04-02T03:54:02.821Z,87640.00
2023-04-02T03:55:02.836Z,87642.00
2023-04-02T03:56:02.861Z,87640.00
2023-04-02T03:57:02.948Z,87640.00
2023-04-02T03:58:02.905Z,87642.00
2023-04-02T03:59:02.919Z,87644.00
2023-04-02T04:00:02.931Z,87644.00
2023-04-02T04:01:02.912Z,87644.00
2023-04-02T04:02:02.947Z,87640.00
2023-04-02T04:03:02.950Z,87644.00
2023-04-02T04:04:02.959Z,87644.00
2023-04-02T04:05:02.872Z,87644.00
2023-04-02T04:06:02.874Z,87640.00
2023-04-02T04:07:02.845Z,87642.00
2023-04-02T04:08:02.838Z,87644.00
2023-04-02T04:09:02.825Z,87646.00
2023-04-02T04:10:02.815Z,87646.00
2023-04-02T04:11:02.893Z,87650.00
2023-04-02T04:12:02.795Z,87652.00
2023-04-02T04:13:02.774Z,87652.00
2023-04-02T04:14:02.773Z,87656.00
2023-04-02T04:15:02.774Z,87650.00
2023-04-02T04:16:02.753Z,87656.00
2023-04-02T04:17:02.725Z,87652.00
2023-04-02T04:18:02.799Z,87656.00
2023-04-02T04:19:02.732Z,87658.00
2023-04-02T04:20:02.759Z,87662.00
2023-04-02T04:21:02.743Z,87664.00
2023-04-02T04:22:02.768Z,87666.00
2023-04-02T04:23:02.744Z,87666.00
2023-04-02T04:24:02.740Z,87666.00
2023-04-02T04:25:02.729Z,87668.00
2023-04-02T04:26:02.712Z,87666.00
2023-04-02T04:27:02.718Z,87670.00
2023-04-02T04:28:02.690Z,87666.00
2023-04-02T04:29:02.686Z,87670.00
2023-04-02T04:30:02.672Z,87670.00
2023-04-02T04:31:02.681Z,87672.00
2023-04-02T04:32:02.695Z,87678.00
2023-04-02T04:33:02.695Z,87678.00
2023-04-02T04:34:02.664Z,87684.00
2023-04-02T04:35:02.681Z,87684.00
2023-04-02T04:36:02.678Z,87680.00
2023-04-02T04:37:02.624Z,87686.00
2023-04-02T04:38:02.630Z,87684.00
2023-04-02T04:39:02.599Z,87688.00
2023-04-02T04:40:02.601Z,87688.00
2023-04-02T04:41:02.602Z,87691.00
2023-04-02T04:42:02.591Z,87691.00
2023-04-02T04:43:02.594Z,87693.00
2023-04-02T04:44:02.567Z,87697.00
2023-04-02T04:45:02.576Z,87695.00
2023-04-02T04:46:02.608Z,87691.00
2023-04-02T04:47:02.582Z,87691.00
2023-04-02T04:48:02.591Z,87690.00
2023-04-02T04:49:02.528Z,87695.00
2023-04-02T04:50:02.542Z,87697.00
2023-04-02T04:51:02.559Z,87706.00
2023-04-02T04:52:02.599Z,87706.00
2023-04-02T04:53:02.589Z,87706.00
2023-04-02T04:54:02.646Z,87710.00
2023-04-02T04:55:02.662Z,87712.00
2023-04-02T04:56:15.993Z,87712.00
2023-04-02T04:57:03.717Z,87710.00
2023-04-02T04:58:02.648Z,87710.00
2023-04-02T04:59:02.661Z,87712.00
2023-04-02T05:00:02.631Z,87716.00
2023-04-02T05:01:02.640Z,87722.00
2023-04-02T05:02:02.628Z,87722.00
2023-04-02T05:03:02.640Z,87724.00
2023-04-02T05:04:02.597Z,87726.00
2023-04-02T05:05:02.697Z,87726.00
2023-04-02T05:06:02.602Z,87728.00
2023-04-02T05:07:02.595Z,87730.00
2023-04-02T05:08:02.570Z,87724.00
2023-04-02T05:09:02.539Z,87728.00
2023-04-02T05:10:02.536Z,87728.00
2023-04-02T05:11:02.525Z,87738.00
2023-04-02T05:12:02.529Z,87738.00
2023-04-02T05:13:02.502Z,87736.00
2023-04-02T05:14:02.496Z,87736.00
2023-04-02T05:15:02.518Z,87736.00
2023-04-02T05:16:02.566Z,87738.00
2023-04-02T05:17:02.475Z,87740.00
2023-04-02T05:18:02.498Z,87734.00
2023-04-02T05:19:02.449Z,87734.00
2023-04-02T05:20:02.431Z,87734.00
2023-04-02T05:21:02.585Z,87734.00
2023-04-02T05:22:02.444Z,87740.00
2023-04-02T05:23:02.446Z,87742.00
2023-04-02T05:24:02.479Z,87744.00
2023-04-02T05:25:02.481Z,87744.00
2023-04-02T05:26:02.516Z,87744.00
2023-04-02T05:27:02.538Z,87742.00
2023-04-02T05:28:02.554Z,87750.00
2023-04-02T05:29:02.575Z,87748.00
2023-04-02T05:30:02.603Z,87748.00
2023-04-02T05:31:02.641Z,87748.00
2023-04-02T05:32:02.660Z,87750.00
2023-04-02T05:33:02.698Z,87757.00
2023-04-02T05:34:02.667Z,87759.00
2023-04-02T05:35:02.697Z,87759.00
2023-04-02T05:36:02.743Z,87757.00
2023-04-02T05:37:04.031Z,87757.00
2023-04-02T05:38:02.784Z,87757.00
2023-04-02T05:39:02.795Z,87761.00
2023-04-02T05:40:02.805Z,87763.00
2023-04-02T05:41:02.803Z,87763.00
2023-04-02T05:42:02.816Z,87761.00
2023-04-02T05:43:02.846Z,87761.00
2023-04-02T05:44:02.855Z,87765.00
2023-04-02T05:45:02.879Z,87767.00
2023-04-02T05:46:02.918Z,87767.00
2023-04-02T05:47:02.953Z,87767.00
2023-04-02T05:48:03.004Z,87767.00
2023-04-02T05:49:02.971Z,87765.00
2023-04-02T05:50:02.977Z,87769.00
2023-04-02T05:51:02.993Z,87771.00
2023-04-02T05:52:03.006Z,87771.00
2023-04-02T05:53:03.044Z,87769.00
2023-04-02T05:54:03.061Z,87769.00
2023-04-02T05:55:03.070Z,87773.00
2023-04-02T05:56:03.099Z,87773.00
2023-04-02T05:57:03.145Z,87773.00
2023-04-02T05:58:29.549Z,87769.00
2023-04-02T05:59:04.130Z,87771.00
2023-04-02T06:00:03.162Z,87769.00
2023-04-02T06:01:03.124Z,87771.00
2023-04-02T06:02:03.204Z,87773.00
2023-04-02T06:03:03.319Z,87769.00
2023-04-02T06:04:03.127Z,87769.00
2023-04-02T06:05:03.083Z,87769.00
2023-04-02T06:06:03.071Z,87773.00
2023-04-02T06:07:03.056Z,87773.00
2023-04-02T06:08:03.054Z,87773.00
2023-04-02T06:09:03.057Z,87769.00
2023-04-02T06:10:03.055Z,87773.00
2023-04-02T06:11:03.039Z,87773.00
2023-04-02T06:12:03.038Z,87775.00
2023-04-02T06:13:03.047Z,87775.00
2023-04-02T06:14:03.048Z,87773.00
2023-04-02T06:15:03.039Z,87773.00
2023-04-02T06:16:03.043Z,87777.00
2023-04-02T06:17:03.071Z,87777.00
2023-04-02T06:18:03.051Z,87777.00
2023-04-02T06:19:03.010Z,87777.00
2023-04-02T06:20:03.010Z,87777.00
2023-04-02T06:21:02.993Z,87781.00
2023-04-02T06:22:02.992Z,87781.00
2023-04-02T06:23:03.012Z,87779.00
2023-04-02T06:24:03.029Z,87779.00
2023-04-02T06:25:03.068Z,87777.00
2023-04-02T06:26:03.093Z,87777.00
2023-04-02T06:27:03.109Z,87781.00
2023-04-02T06:28:03.122Z,87779.00
2023-04-02T06:29:03.142Z,87777.00
2023-04-02T06:30:03.108Z,87775.00
2023-04-02T06:31:03.105Z,87775.00
2023-04-02T06:32:03.092Z,87781.00
2023-04-02T06:33:03.156Z,87777.00
2023-04-02T06:34:03.074Z,87777.00
2023-04-02T06:35:03.068Z,87779.00
2023-04-02T06:36:03.073Z,87779.00
2023-04-02T06:37:03.040Z,87785.00
2023-04-02T06:38:03.076Z,87783.00
2023-04-02T06:39:03.041Z,87785.00
2023-04-02T06:40:03.022Z,87783.00
2023-04-02T06:41:03.020Z,87783.00
2023-04-02T06:42:03.052Z,87783.00
2023-04-02T06:43:03.019Z,87785.00
2023-04-02T06:44:03.017Z,87783.00
2023-04-02T06:45:02.994Z,87783.00
2023-04-02T06:46:03.007Z,87785.00
2023-04-02T06:47:03.001Z,87783.00
2023-04-02T06:48:03.007Z,87789.00
2023-04-02T06:49:02.957Z,87789.00
2023-04-02T06:50:02.951Z,87791.00
2023-04-02T06:51:02.932Z,87787.00
2023-04-02T06:52:02.919Z,87787.00
2023-04-02T06:53:02.936Z,87791.00
2023-04-02T06:54:02.911Z,87787.00
2023-04-02T06:55:02.999Z,87789.00
2023-04-02T06:56:02.894Z,87787.00
2023-04-02T06:57:02.920Z,87785.00
2023-04-02T06:58:02.872Z,87791.00
2023-04-02T06:59:02.881Z,87791.00
2023-04-02T07:00:02.855Z,87791.00
2023-04-02T07:01:02.909Z,87789.00
2023-04-02T07:02:02.846Z,87791.00
2023-04-02T07:03:02.909Z,87793.00
2023-04-02T07:04:02.824Z,87793.00
2023-04-02T07:05:02.892Z,87793.00
2023-04-02T07:06:02.820Z,87791.00
2023-04-02T07:07:02.817Z,87789.00
2023-04-02T07:08:02.787Z,87791.00
2023-04-02T07:09:02.777Z,87795.00
2023-04-02T07:10:02.781Z,87797.00
2023-04-02T07:11:02.767Z,87793.00
2023-04-02T07:12:02.748Z,87795.00
2023-04-02T07:13:02.785Z,87793.00
2023-04-02T07:14:02.756Z,87795.00
2023-04-02T07:15:02.717Z,87798.00
2023-04-02T07:16:02.762Z,87797.00
2023-04-02T07:17:02.748Z,87797.00
2023-04-02T07:18:02.737Z,87798.00
2023-04-02T07:19:02.692Z,87798.00
2023-04-02T07:20:02.664Z,87800.00
2023-04-02T07:21:02.657Z,87800.00
2023-04-02T07:22:02.655Z,87802.00
2023-04-02T07:23:02.676Z,87800.00
2023-04-02T07:24:02.663Z,87804.00
2023-04-02T07:25:02.659Z,87804.00
2023-04-02T07:26:02.664Z,87802.00
2023-04-02T07:27:02.680Z,87804.00
2023-04-02T07:28:02.686Z,87802.00
2023-04-02T07:29:02.632Z,87806.00
2023-04-02T07:30:02.643Z,87806.00
2023-04-02T07:31:02.635Z,87802.00
2023-04-02T07:32:02.606Z,87806.00
2023-04-02T07:33:02.633Z,87804.00
2023-04-02T07:34:02.582Z,87804.00
2023-04-02T07:35:02.583Z,87804.00
2023-04-02T07:36:02.633Z,87804.00
2023-04-02T07:37:02.556Z,87806.00
2023-04-02T07:38:02.547Z,87804.00
2023-04-02T07:39:02.561Z,87804.00
2023-04-02T07:40:02.537Z,87806.00
2023-04-02T07:41:02.550Z,87806.00
2023-04-02T07:42:02.527Z,87806.00
2023-04-02T07:43:02.541Z,87806.00
2023-04-02T07:44:02.524Z,87808.00
2023-04-02T07:45:05.335Z,87808.00
2023-04-02T07:46:02.500Z,87808.00
2023-04-02T07:47:02.577Z,87808.00
2023-04-02T07:48:02.479Z,87806.00
2023-04-02T07:49:02.428Z,87808.00
2023-04-02T07:50:02.412Z,87804.00
2023-04-02T07:51:02.404Z,87806.00
2023-04-02T07:52:02.381Z,87810.00
2023-04-02T07:53:02.363Z,87810.00
2023-04-02T07:54:02.370Z,87808.00
2023-04-02T07:55:02.346Z,87810.00
2023-04-02T07:56:02.342Z,87810.00
2023-04-02T07:57:02.319Z,87812.00
2023-04-02T07:58:02.313Z,87812.00
2023-04-02T07:59:02.276Z,87812.00
2023-04-02T08:00:02.273Z,87810.00
2023-04-02T08:01:02.250Z,87810.00
2023-04-02T08:02:02.293Z,87814.00
2023-04-02T08:03:02.315Z,87814.00
2023-04-02T08:04:02.200Z,87818.00
2023-04-02T08:05:02.178Z,87816.00
2023-04-02T08:06:02.158Z,87818.00
2023-04-02T08:07:02.232Z,87820.00
2023-04-02T08:08:02.153Z,87818.00
2023-04-02T08:09:02.125Z,87820.00
2023-04-02T08:10:02.112Z,87822.00
2023-04-02T08:11:02.093Z,87822.00
2023-04-02T08:12:02.068Z,87822.00
2023-04-02T08:13:02.063Z,87822.00
2023-04-02T08:14:02.095Z,87822.00
2023-04-02T08:15:02.146Z,87822.00
2023-04-02T08:16:02.139Z,87822.00
2023-04-02T08:17:02.236Z,87822.00
2023-04-02T08:18:02.180Z,87824.00
2023-04-02T08:19:02.150Z,87820.00
2023-04-02T08:20:02.149Z,87826.00
2023-04-02T08:21:02.195Z,87824.00
2023-04-02T08:22:02.215Z,87826.00
2023-04-02T08:23:02.228Z,87826.00
2023-04-02T08:24:02.242Z,87824.00
2023-04-02T08:25:02.210Z,87830.00
2023-04-02T08:26:02.212Z,87824.00
2023-04-02T08:27:02.202Z,87826.00
2023-04-02T08:28:02.201Z,87828.00
2023-04-02T08:29:02.197Z,87828.00
2023-04-02T08:30:02.169Z,87828.00
2023-04-02T08:31:02.249Z,87830.00
2023-04-02T08:32:02.136Z,87832.00
2023-04-02T08:33:02.167Z,87834.00
2023-04-02T08:34:02.105Z,87836.00
2023-04-02T08:35:02.102Z,87834.00
2023-04-02T08:36:02.099Z,87832.00
2023-04-02T08:37:02.062Z,87834.00
2023-04-02T08:38:02.078Z,87828.00
2023-04-02T08:39:02.043Z,87828.00
2023-04-02T08:40:02.013Z,87826.00
2023-04-02T08:41:02.007Z,87828.00
2023-04-02T08:42:01.971Z,87826.00
2023-04-02T08:43:01.965Z,87830.00
2023-04-02T08:44:01.949Z,87828.00
2023-04-02T08:45:08.087Z,87832.00
2023-04-02T08:46:01.946Z,87828.00
2023-04-02T08:47:01.913Z,87832.00
2023-04-02T08:48:01.978Z,87832.00
2023-04-02T08:49:01.897Z,87834.00
2023-04-02T08:50:01.887Z,87832.00
2023-04-02T08:51:01.883Z,87834.00
2023-04-02T08:52:01.856Z,87832.00
2023-04-02T08:53:01.860Z,87832.00
2023-04-02T08:54:01.837Z,87830.00
2023-04-02T08:55:01.886Z,87830.00
2023-04-02T08:56:01.819Z,87834.00
2023-04-02T08:57:01.880Z,87834.00
2023-04-02T08:58:01.797Z,87832.00
2023-04-02T08:59:01.797Z,87832.00
2023-04-02T09:00:01.785Z,87830.00
2023-04-02T09:01:01.837Z,87828.00
2023-04-02T09:02:02.077Z,87832.00
2023-04-02T09:03:01.958Z,87834.00
2023-04-02T09:04:01.972Z,87834.00
2023-04-02T09:05:02.017Z,87834.00
2023-04-02T09:06:02.042Z,87836.00
2023-04-02T09:07:02.096Z,87836.00
2023-04-02T09:08:02.105Z,87836.00
2023-04-02T09:09:02.089Z,87838.00
2023-04-02T09:10:02.082Z,87838.00
2023-04-02T09:11:02.060Z,87840.00
2023-04-02T09:12:02.056Z,87838.00
2023-04-02T09:13:02.034Z,87840.00
2023-04-02T09:14:02.065Z,87842.00
2023-04-02T09:15:02.013Z,87840.00
2023-04-02T09:16:01.999Z,87840.00
2023-04-02T09:17:02.036Z,87842.00
2023-04-02T09:18:02.097Z,87840.00
2023-04-02T09:19:02.133Z,87842.00
2023-04-02T09:20:02.180Z,87842.00
2023-04-02T09:21:02.251Z,87846.00
2023-04-02T09:22:02.310Z,87844.00
2023-04-02T09:23:02.377Z,87844.00
2023-04-02T09:24:04.025Z,87840.00
2023-04-02T09:25:02.362Z,87840.00
2023-04-02T09:26:04.911Z,87842.00
2023-04-02T09:27:02.355Z,87842.00
2023-04-02T09:28:02.286Z,87840.00
2023-04-02T09:29:02.285Z,87842.00
2023-04-02T09:30:02.264Z,87842.00
2023-04-02T09:31:02.239Z,87840.00
2023-04-02T09:32:02.302Z,87842.00
2023-04-02T09:33:02.277Z,87844.00
2023-04-02T09:34:02.204Z,87842.00
2023-04-02T09:35:04.145Z,87842.00
2023-04-02T09:36:03.141Z,87846.00
2023-04-02T09:37:02.108Z,87846.00
2023-04-02T09:38:02.095Z,87842.00
2023-04-02T09:39:02.068Z,87848.00
2023-04-02T09:40:02.047Z,87852.00
2023-04-02T09:41:02.159Z,87850.00
2023-04-02T09:42:05.844Z,87850.00
2023-04-02T09:43:02.007Z,87853.00
2023-04-02T09:44:02.004Z,87855.00
2023-04-02T09:45:02.015Z,87853.00
2023-04-02T09:46:01.991Z,87852.00
2023-04-02T09:47:02.024Z,87855.00
2023-04-02T09:48:02.073Z,87855.00
2023-04-02T09:49:01.936Z,87852.00
2023-04-02T09:50:01.927Z,87853.00
2023-04-02T09:51:01.927Z,87855.00
2023-04-02T09:52:01.904Z,87850.00
2023-04-02T09:53:01.900Z,87853.00
2023-04-02T09:54:01.888Z,87853.00
2023-04-02T09:55:01.872Z,87852.00
2023-04-02T09:56:01.865Z,87853.00
2023-04-02T09:57:01.908Z,87857.00
2023-04-02T09:58:02.127Z,87853.00
2023-04-02T09:59:01.861Z,87855.00
2023-04-02T10:00:01.936Z,87855.00
2023-04-02T10:01:01.996Z,87850.00
2023-04-02T10:02:02.029Z,87852.00
2023-04-02T10:03:02.137Z,87857.00
2023-04-02T10:04:02.201Z,87853.00
2023-04-02T10:05:02.204Z,87855.00
2023-04-02T10:06:02.261Z,87853.00
2023-04-02T10:07:02.314Z,87850.00
2023-04-02T10:08:02.397Z,87857.00
2023-04-02T10:09:02.425Z,87855.00
2023-04-02T10:10:02.546Z,87852.00
2023-04-02T10:11:02.533Z,87853.00
2023-04-02T10:12:02.534Z,87855.00
2023-04-02T10:13:02.566Z,87855.00
2023-04-02T10:14:02.528Z,87852.00
2023-04-02T10:15:02.513Z,87853.00
2023-04-02T10:16:02.560Z,87853.00
2023-04-02T10:17:02.541Z,87853.00
2023-04-02T10:18:02.548Z,87852.00
2023-04-02T10:19:02.482Z,87850.00
2023-04-02T10:20:02.473Z,87848.00
2023-04-02T10:21:02.468Z,87848.00
2023-04-02T10:22:02.517Z,87852.00
2023-04-02T10:23:03.316Z,87850.00
2023-04-02T10:24:02.618Z,87850.00
2023-04-02T10:25:02.686Z,87850.00
2023-04-02T10:26:02.747Z,87850.00
2023-04-02T10:27:02.789Z,87850.00
2023-04-02T10:28:02.856Z,87848.00
2023-04-02T10:29:03.562Z,87852.00
2023-04-02T10:30:02.974Z,87852.00
2023-04-02T10:31:03.044Z,87853.00
2023-04-02T10:32:03.072Z,87853.00
2023-04-02T10:33:03.135Z,87852.00
2023-04-02T10:34:03.186Z,87852.00
2023-04-02T10:35:03.249Z,87852.00
2023-04-02T10:36:03.333Z,87848.00
2023-04-02T10:37:03.354Z,87853.00
2023-04-02T10:38:03.400Z,87853.00
2023-04-02T10:39:03.402Z,87852.00
2023-04-02T10:40:03.451Z,87850.00
2023-04-02T10:41:03.504Z,87853.00
2023-04-02T10:42:03.527Z,87850.00
2023-04-02T10:43:03.570Z,87852.00
2023-04-02T10:44:13.089Z,87852.00
2023-04-02T10:45:04.598Z,87855.00
2023-04-02T10:46:03.588Z,87855.00
2023-04-02T10:47:03.563Z,87850.00
2023-04-02T10:48:03.633Z,87853.00
2023-04-02T10:49:03.594Z,87855.00
2023-04-02T10:50:03.573Z,87859.00
2023-04-02T10:51:03.530Z,87852.00
2023-04-02T10:52:03.549Z,87852.00
2023-04-02T10:53:03.599Z,87850.00
2023-04-02T10:54:03.657Z,87850.00
2023-04-02T10:55:03.722Z,87850.00
2023-04-02T10:56:03.757Z,87852.00
2023-04-02T10:57:03.825Z,87850.00
2023-04-02T10:58:03.880Z,87852.00
2023-04-02T10:59:03.950Z,87852.00
2023-04-02T11:00:03.930Z,87853.00
2023-04-02T11:01:03.918Z,87857.00
2023-04-02T11:02:03.959Z,87857.00
2023-04-02T11:03:03.942Z,87857.00
2023-04-02T11:04:03.869Z,87857.00
2023-04-02T11:05:03.855Z,87857.00
2023-04-02T11:06:03.843Z,87859.00
2023-04-02T11:07:13.144Z,87859.00
2023-04-02T11:08:04.817Z,87861.00
2023-04-02T11:09:03.812Z,87857.00
2023-04-02T11:10:03.811Z,87857.00
2023-04-02T11:11:04.708Z,87859.00
2023-04-02T11:12:03.770Z,87859.00
2023-04-02T11:13:03.764Z,87861.00
2023-04-02T11:14:03.745Z,87855.00
2023-04-02T11:15:03.741Z,87857.00
2023-04-02T11:16:03.780Z,87859.00
2023-04-02T11:17:03.802Z,87853.00
2023-04-02T11:18:03.869Z,87855.00
2023-04-02T11:19:03.890Z,87853.00
2023-04-02T11:20:03.950Z,87857.00
2023-04-02T11:21:04.012Z,87859.00
2023-04-02T11:22:06.485Z,87865.00
2023-04-02T11:23:04.040Z,87863.00
2023-04-02T11:24:04.039Z,87865.00
2023-04-02T11:25:04.024Z,87875.00
2023-04-02T11:26:04.014Z,87869.00
2023-04-02T11:27:04.021Z,87871.00
2023-04-02T11:28:03.998Z,87877.00
2023-04-02T11:29:03.988Z,87879.00
2023-04-02T11:30:04.094Z,87881.00
2023-04-02T11:31:03.984Z,87883.00
2023-04-02T11:32:03.956Z,87885.00
2023-04-02T11:33:03.957Z,87887.00
2023-04-02T11:34:03.931Z,87891.00
2023-04-02T11:35:07.525Z,87891.00
2023-04-02T11:36:03.951Z,87893.00
2023-04-02T11:37:03.894Z,87895.00
2023-04-02T11:38:03.894Z,87897.00
2023-04-02T11:39:14.701Z,87899.00
2023-04-02T11:40:04.873Z,87895.00
2023-04-02T11:41:03.860Z,87899.00
2023-04-02T11:42:03.859Z,87901.00
2023-04-02T11:43:03.850Z,87905.00
2023-04-02T11:44:03.843Z,87905.00